Time;durP1;ratioP1;P1;durP2;ratioP2;P2;SDS_P1;SDS_P2;PMS_P1;PMS_P2;Temp;Humidity;BMP_temperature;BMP_pressure;BME280_temperature;BME280_humidity;BME280_pressure;Samples;Min_cycle;Max_cycle;Signal;HPM_P1;HPM_P2
2023/08/21 00:01:43;;;;;;;0.80;0.60;;;;;;;23.73;100.00;99098.53;4171823;28;20665;-45
2023/08/21 00:03:45;;;;;;;15.25;1.02;;;;;;;23.70;100.00;99086.38;4170676;28;20204;-45
2023/08/21 00:05:47;;;;;;;4.20;1.17;;;;;;;23.64;100.00;99087.66;4168633;28;20212;-45
2023/08/21 00:07:50;;;;;;;0.82;0.80;;;;;;;23.67;100.00;99088.66;4185995;28;20214;-46
2023/08/21 00:09:52;;;;;;;1.08;0.80;;;;;;;23.65;100.00;99089.31;4177164;28;20239;-46
2023/08/21 00:11:54;;;;;;;8.30;1.42;;;;;;;23.60;100.00;99081.03;4189194;28;20754;-45
2023/08/21 00:13:56;;;;;;;0.73;0.73;;;;;;;23.57;100.00;99087.28;4173896;28;20203;-44
2023/08/21 00:15:57;;;;;;;0.85;0.85;;;;;;;23.59;100.00;99074.66;4175999;28;20207;-45
2023/08/21 00:18:00;;;;;;;0.80;0.77;;;;;;;23.56;100.00;99080.88;4169375;28;20215;-45
2023/08/21 00:20:02;;;;;;;0.77;0.77;;;;;;;23.49;100.00;99082.47;4155015;28;20236;-45
2023/08/21 00:22:04;;;;;;;1.23;1.13;;;;;;;23.44;100.00;99079.81;4186892;28;20245;-45
2023/08/21 00:24:06;;;;;;;1.05;0.93;;;;;;;23.43;100.00;99073.41;4186738;28;20280;-46
2023/08/21 00:26:08;;;;;;;1.55;1.17;;;;;;;23.46;100.00;99080.31;4189025;28;20226;-45
2023/08/21 00:28:09;;;;;;;0.85;0.85;;;;;;;23.46;100.00;99075.56;4172297;28;20211;-46
2023/08/21 00:30:14;;;;;;;0.68;0.68;;;;;;;23.41;100.00;99080.44;4170500;28;20204;-46
2023/08/21 00:32:17;;;;;;;1.80;1.58;;;;;;;23.43;100.00;99081.78;4171238;28;20199;-44
2023/08/21 00:34:19;;;;;;;0.70;0.70;;;;;;;23.45;100.00;99078.66;4176518;28;20811;-45
2023/08/21 00:36:21;;;;;;;1.73;1.45;;;;;;;23.54;100.00;99082.31;4173437;28;20649;-44
2023/08/21 00:38:23;;;;;;;1.45;1.00;;;;;;;23.42;100.00;99087.66;4170855;28;20215;-46
2023/08/21 00:40:25;;;;;;;0.52;0.50;;;;;;;23.35;100.00;99087.31;4168351;28;20216;-44
2023/08/21 00:42:27;;;;;;;1.00;0.90;;;;;;;23.41;100.00;99084.06;4168954;28;20225;-45
2023/08/21 00:44:29;;;;;;;1.42;1.17;;;;;;;23.35;100.00;99085.34;4169816;28;20340;-45
2023/08/21 00:46:31;;;;;;;6.13;1.63;;;;;;;23.31;100.00;99084.31;4170816;28;20848;-45
2023/08/21 00:48:34;;;;;;;1.15;1.10;;;;;;;23.29;100.00;99085.78;4171185;28;20203;-45
2023/08/21 00:50:36;;;;;;;0.93;0.63;;;;;;;23.20;100.00;99084.91;4172096;28;20204;-45
2023/08/21 00:52:39;;;;;;;1.58;1.08;;;;;;;23.12;100.00;99083.69;4169196;28;20207;-44
2023/08/21 00:54:41;;;;;;;1.10;1.00;;;;;;;23.14;100.00;99083.34;4170319;28;20774;-45
2023/08/21 00:56:44;;;;;;;1.02;0.75;;;;;;;23.12;100.00;99080.06;4170707;28;20207;-45
2023/08/21 00:58:46;;;;;;;2.58;1.02;;;;;;;23.08;100.00;99079.03;4153694;28;20212;-45
2023/08/21 01:00:49;;;;;;;0.85;0.85;;;;;;;23.06;100.00;99078.53;4166722;28;20227;-45
2023/08/21 01:02:51;;;;;;;1.35;0.90;;;;;;;23.06;100.00;99072.94;4185758;28;20214;-45
2023/08/21 01:04:53;;;;;;;0.93;0.93;;;;;;;23.01;100.00;99073.06;4170576;28;20342;-45
2023/08/21 01:06:56;;;;;;;1.05;0.65;;;;;;;23.03;100.00;99081.97;4169111;28;20211;-45
2023/08/21 01:09:16;;;;;;;0.90;0.80;;;;;;;22.97;100.00;99077.66;4170720;28;20215;-45
2023/08/21 01:11:43;;;;;;;3.33;0.60;;;;;;;22.98;100.00;99082.09;4169188;28;20246;-45
2023/08/21 01:13:54;;;;;;;0.55;0.50;;;;;;;23.01;100.00;99078.66;4170817;28;20199;-45
2023/08/21 01:15:56;;;;;;;1.08;0.82;;;;;;;23.00;100.00;99082.59;4168241;28;20318;-45
2023/08/21 01:17:59;;;;;;;0.88;0.88;;;;;;;22.96;100.00;99084.38;4166949;28;20864;-45
2023/08/21 01:20:02;;;;;;;1.10;1.10;;;;;;;22.87;100.00;99087.09;4184642;28;20214;-45
2023/08/21 01:22:04;;;;;;;2.05;1.45;;;;;;;22.86;100.00;99093.00;4169191;28;20207;-45
2023/08/21 01:24:06;;;;;;;0.45;0.45;;;;;;;22.83;100.00;99090.84;4150614;28;20235;-45
2023/08/21 01:26:08;;;;;;;1.10;1.08;;;;;;;22.86;100.00;99087.41;4172090;28;20235;-46
2023/08/21 01:28:09;;;;;;;1.48;1.15;;;;;;;22.83;100.00;99093.63;4170035;28;20728;-45
2023/08/21 01:30:11;;;;;;;6.45;1.48;;;;;;;22.80;100.00;99091.47;4169834;28;20213;-45
2023/08/21 01:32:31;;;;;;;0.70;0.63;;;;;;;22.84;100.00;99100.88;4168612;28;20208;-45
2023/08/21 01:34:34;;;;;;;1.35;0.95;;;;;;;22.78;100.00;99090.97;4186184;28;20226;-46
2023/08/21 01:36:36;;;;;;;1.77;1.00;;;;;;;22.74;100.00;99098.31;4170061;28;20215;-45
2023/08/21 01:38:38;;;;;;;0.88;0.88;;;;;;;22.74;100.00;99098.31;4173274;28;20246;-45
2023/08/21 01:40:40;;;;;;;1.55;1.05;;;;;;;22.68;100.00;99099.56;4175604;28;20219;-44
2023/08/21 01:42:41;;;;;;;0.80;0.80;;;;;;;22.68;100.00;99094.81;4174382;28;21290;-46
2023/08/21 01:44:46;;;;;;;0.65;0.60;;;;;;;22.67;100.00;99095.13;4167970;28;20223;-45
2023/08/21 01:46:48;;;;;;;1.00;1.00;;;;;;;22.64;100.00;99095.75;4170649;28;20211;-45
2023/08/21 01:48:49;;;;;;;3.63;0.88;;;;;;;22.59;100.00;99098.66;4168287;28;20307;-45
2023/08/21 01:50:51;;;;;;;1.13;1.00;;;;;;;22.62;100.00;99098.84;4171908;28;20199;-46
2023/08/21 01:52:53;;;;;;;1.35;1.00;;;;;;;22.62;100.00;99092.44;4171504;28;20201;-45
2023/08/21 01:54:55;;;;;;;0.93;0.82;;;;;;;22.66;100.00;99104.63;4175623;28;20223;-45
2023/08/21 01:56:57;;;;;;;0.60;0.60;;;;;;;22.62;100.00;99100.81;4171778;28;20211;-46
2023/08/21 01:58:58;;;;;;;0.75;0.75;;;;;;;22.60;100.00;99105.88;4173534;28;20448;-45
2023/08/21 02:01:00;;;;;;;1.02;0.95;;;;;;;22.55;100.00;99097.63;4169508;28;20728;-45
2023/08/21 02:03:02;;;;;;;0.73;0.73;;;;;;;22.49;100.00;99104.44;4170347;28;20274;-46
2023/08/21 02:05:04;;;;;;;0.75;0.70;;;;;;;22.45;100.00;99103.44;4158157;28;20771;-45
2023/08/21 02:07:07;;;;;;;0.80;0.70;;;;;;;22.43;100.00;99102.94;4169836;28;20248;-45
2023/08/21 02:09:09;;;;;;;0.70;0.70;;;;;;;22.43;100.00;99100.16;4169412;28;20208;-46
2023/08/21 02:11:10;;;;;;;0.70;0.70;;;;;;;22.44;100.00;99099.00;4169004;28;20199;-46
2023/08/21 02:13:12;;;;;;;1.38;0.75;;;;;;;22.39;100.00;99099.09;4169217;28;20204;-45
2023/08/21 02:15:14;;;;;;;1.02;1.02;;;;;;;22.37;100.00;99102.16;4166912;28;20231;-44
2023/08/21 02:17:16;;;;;;;0.63;0.60;;;;;;;22.37;100.00;99107.75;4170618;28;21059;-45
2023/08/21 02:19:17;;;;;;;2.33;1.13;;;;;;;22.34;100.00;99096.41;4168590;28;20282;-46
2023/08/21 02:21:20;;;;;;;0.80;0.80;;;;;;;22.34;100.00;99102.81;4173151;28;20232;-45
2023/08/21 02:23:24;;;;;;;1.27;0.90;;;;;;;22.33;100.00;99100.31;4168668;28;20215;-45
2023/08/21 02:25:25;;;;;;;1.00;0.80;;;;;;;22.35;100.00;99103.63;4171014;28;20703;-45
2023/08/21 02:27:27;;;;;;;1.13;1.02;;;;;;;22.34;100.00;99101.97;4175660;28;20203;-45
2023/08/21 02:29:29;;;;;;;1.05;0.95;;;;;;;22.29;100.00;99107.66;4141295;28;20201;-45
2023/08/21 02:31:31;;;;;;;0.88;0.73;;;;;;;22.21;100.00;99097.22;4166486;28;20338;-45
2023/08/21 02:33:32;;;;;;;0.60;0.60;;;;;;;22.19;100.00;99099.53;4183372;28;20198;-45
2023/08/21 02:35:34;;;;;;;0.85;0.68;;;;;;;22.17;100.00;99099.00;4170012;28;20231;-46
2023/08/21 02:37:38;;;;;;;0.82;0.82;;;;;;;;;;4168849;28;20203;-46
2023/08/21 02:39:40;;;;;;;1.25;1.17;;;;;;;22.19;100.00;99099.53;4167209;28;20691;-45
2023/08/21 02:41:42;;;;;;;0.88;0.65;;;;;;;22.07;100.00;99102.00;4172782;28;20235;-45
2023/08/21 02:43:44;;;;;;;0.60;0.60;;;;;;;22.05;100.00;99101.50;4169380;28;20286;-46
2023/08/21 02:45:46;;;;;;;0.65;0.65;;;;;;;22.01;100.00;99098.50;4168152;28;20604;-45
2023/08/21 02:47:47;;;;;;;1.27;1.17;;;;;;;22.04;100.00;99102.63;4168789;28;21134;-45
2023/08/21 02:49:49;;;;;;;1.02;0.95;;;;;;;22.07;100.00;99096.41;4185624;28;20196;-45
2023/08/21 02:51:51;;;;;;;0.55;0.55;;;;;;;22.02;100.00;99099.31;4169054;28;20719;-46
2023/08/21 02:53:52;;;;;;;1.10;1.00;;;;;;;22.08;100.00;99098.06;4176146;28;20601;-46
2023/08/21 02:55:54;;;;;;;1.95;1.60;;;;;;;21.99;100.00;99099.94;4173394;28;20269;-45
2023/08/21 02:57:56;;;;;;;1.58;1.45;;;;;;;21.94;100.00;99097.25;4174079;28;20207;-45
2023/08/21 02:59:58;;;;;;;0.50;0.50;;;;;;;21.99;100.00;99088.78;4167829;28;20203;-46
2023/08/21 03:01:59;;;;;;;1.63;1.30;;;;;;;21.99;100.00;99089.63;4175451;28;20234;-45
2023/08/21 03:04:01;;;;;;;0.60;0.60;;;;;;;21.97;100.00;99097.44;4166865;28;20258;-45
2023/08/21 03:06:03;;;;;;;1.33;0.82;;;;;;;21.97;100.00;99091.06;4142444;28;20223;-46
2023/08/21 03:08:05;;;;;;;1.30;1.05;;;;;;;21.88;100.00;99098.47;4184043;28;20215;-46
2023/08/21 03:10:08;;;;;;;1.20;1.10;;;;;;;21.85;100.00;99099.13;4167050;28;20799;-47
2023/08/21 03:12:09;;;;;;;1.40;1.30;;;;;;;21.87;100.00;99091.25;4170942;28;20207;-45
2023/08/21 03:14:11;;;;;;;1.15;1.05;;;;;;;21.89;100.00;99094.56;4160149;28;20239;-46
2023/08/21 03:16:13;;;;;;;0.60;0.60;;;;;;;21.86;100.00;99095.19;4185280;28;20211;-46
2023/08/21 03:18:15;;;;;;;0.60;0.60;;;;;;;21.87;100.00;99091.25;4185340;28;20211;-46
2023/08/21 03:20:19;;;;;;;1.40;0.88;;;;;;;21.76;100.00;99095.38;4169574;28;20207;-46
2023/08/21 03:22:21;;;;;;;0.80;0.80;;;;;;;21.77;100.00;99094.25;4168174;28;20281;-46
2023/08/21 03:24:23;;;;;;;1.80;1.67;;;;;;;21.74;100.00;99092.06;4165785;28;20230;-46
2023/08/21 03:26:25;;;;;;;1.17;0.70;;;;;;;21.69;100.00;99092.16;4153689;28;20213;-46
2023/08/21 03:28:27;;;;;;;1.25;0.95;;;;;;;21.71;100.00;99092.72;4185354;28;20211;-47
2023/08/21 03:30:28;;;;;;;14.15;1.70;;;;;;;21.72;100.00;99097.94;4152218;28;20627;-46
2023/08/21 03:32:31;;;;;;;0.93;0.93;;;;;;;21.69;100.00;99094.94;4167151;28;20769;-46
2023/08/21 03:34:33;;;;;;;1.02;1.02;;;;;;;21.71;100.00;99095.50;4168800;28;20231;-46
2023/08/21 03:36:37;;;;;;;10.85;1.23;;;;;;;21.66;100.00;99092.75;4166349;28;20270;-45
2023/08/21 03:38:38;;;;;;;0.73;0.70;;;;;;;21.56;100.00;99096.56;4169212;28;20204;-46
2023/08/21 03:40:40;;;;;;;11.85;1.05;;;;;;;21.56;100.00;99095.72;4174026;28;20332;-45
2023/08/21 03:42:43;;;;;;;0.70;0.70;;;;;;;21.52;100.00;99091.91;4183404;28;20213;-45
2023/08/21 03:44:45;;;;;;;0.80;0.80;;;;;;;21.48;100.00;99096.44;4164417;28;20231;-47
2023/08/21 03:46:46;;;;;;;1.50;1.10;;;;;;;21.48;100.00;99088.91;4171007;28;20215;-46
2023/08/21 03:48:48;;;;;;;0.50;0.50;;;;;;;21.49;100.00;99093.34;4171015;28;20203;-46
2023/08/21 03:50:50;;;;;;;2.42;1.27;;;;;;;21.47;100.00;99094.78;4151190;28;20200;-46
2023/08/21 03:52:51;;;;;;;1.08;0.98;;;;;;;21.43;100.00;99102.13;4170694;28;20212;-46
2023/08/21 03:54:53;;;;;;;0.52;0.52;;;;;;;21.43;100.00;99102.94;4184859;28;20297;-45
2023/08/21 03:56:55;;;;;;;1.20;1.10;;;;;;;21.43;100.00;99097.38;4165878;28;20259;-46
2023/08/21 03:58:57;;;;;;;0.50;0.50;;;;;;;21.39;100.00;99106.63;4168178;28;20204;-46
2023/08/21 04:01:01;;;;;;;1.00;0.90;;;;;;;21.36;100.00;99107.25;4182723;28;20269;-46
2023/08/21 04:03:03;;;;;;;0.90;0.80;;;;;;;21.34;100.00;99106.72;4169010;28;20644;-46
2023/08/21 04:05:05;;;;;;;0.55;0.55;;;;;;;21.35;100.00;99105.59;4169106;28;20467;-46
2023/08/21 04:07:07;;;;;;;0.47;0.47;;;;;;;21.33;100.00;99102.28;4182807;28;20294;-45
2023/08/21 04:09:09;;;;;;;0.75;0.75;;;;;;;21.32;100.00;99103.44;4175500;28;20208;-46
2023/08/21 04:11:11;;;;;;;0.50;0.50;;;;;;;21.26;100.00;99104.66;4166422;28;20204;-45
2023/08/21 04:13:12;;;;;;;0.70;0.40;;;;;;;21.25;100.00;99105.78;4168447;28;20635;-46
2023/08/21 04:15:14;;;;;;;5.57;0.85;;;;;;;21.25;100.00;99109.38;4182760;28;20254;-44
2023/08/21 04:17:21;;;;;;;0.52;0.52;;;;;;;21.24;100.00;99109.69;4166487;28;20215;-46
2023/08/21 04:19:24;;;;;;;1.00;1.00;;;;;;;21.21;100.00;99105.56;4172325;28;20216;-45
2023/08/21 04:21:26;;;;;;;1.40;1.30;;;;;;;21.23;100.00;99102.47;4187462;28;20234;-46
2023/08/21 04:23:27;;;;;;;2.40;0.57;;;;;;;21.18;100.00;99116.47;4176409;28;20203;-45
2023/08/21 04:25:29;;;;;;;0.73;0.60;;;;;;;21.12;100.00;99109.34;4171592;28;20718;-45
2023/08/21 04:27:31;;;;;;;0.88;0.88;;;;;;;21.10;100.00;99108.81;4157755;28;20212;-45
2023/08/21 04:29:33;;;;;;;0.90;0.90;;;;;;;21.09;100.00;99112.72;4170358;28;20675;-45
2023/08/21 04:31:34;;;;;;;0.85;0.85;;;;;;;21.08;100.00;99116.63;4186023;28;20204;-46
2023/08/21 04:33:36;;;;;;;1.05;0.90;;;;;;;21.07;100.00;99115.81;4171630;28;20662;-47
2023/08/21 04:35:38;;;;;;;1.38;1.13;;;;;;;21.02;100.00;99115.06;4168932;28;20235;-45
2023/08/21 04:37:45;;;;;;;0.82;0.82;;;;;;;21.04;100.00;99121.97;4187412;28;20555;-46
2023/08/21 04:39:53;;;;;;;0.43;0.43;;;;;;;21.01;100.00;99122.59;4171201;28;20253;-45
2023/08/21 04:41:55;;;;;;;1.38;1.27;;;;;;;21.00;100.00;99131.25;4171118;28;20292;-46
2023/08/21 04:43:57;;;;;;;0.43;0.43;;;;;;;20.97;100.00;99129.09;4168343;28;20618;-46
2023/08/21 04:45:58;;;;;;;0.60;0.60;;;;;;;20.98;100.00;99133.50;4155919;28;20433;-46
2023/08/21 04:48:00;;;;;;;0.68;0.68;;;;;;;20.97;100.00;99134.66;4170417;28;20239;-46
2023/08/21 04:50:02;;;;;;;0.60;0.60;;;;;;;20.97;100.00;99126.31;4169995;28;20211;-45
2023/08/21 04:52:04;;;;;;;1.40;1.20;;;;;;;20.99;100.00;99129.59;4167775;28;20217;-46
2023/08/21 04:54:09;;;;;;;0.98;0.80;;;;;;;20.99;100.00;99135.16;4186281;28;20269;-45
2023/08/21 04:56:10;;;;;;;1.10;1.00;;;;;;;21.02;100.00;99120.63;4169419;28;20214;-46
2023/08/21 04:58:12;;;;;;;0.60;0.60;;;;;;;21.01;100.00;99127.31;4168980;28;20211;-45
2023/08/21 05:00:15;;;;;;;0.80;0.80;;;;;;;20.99;100.00;99130.41;4169587;28;20208;-45
2023/08/21 05:02:17;;;;;;;1.35;1.08;;;;;;;20.95;100.00;99136.88;4172521;28;20995;-47
2023/08/21 05:04:21;;;;;;;0.98;0.95;;;;;;;20.90;100.00;99137.78;4169652;28;20312;-48
2023/08/21 05:06:23;;;;;;;0.73;0.73;;;;;;;20.91;100.00;99135.84;4172671;28;20346;-46
2023/08/21 05:08:26;;;;;;;0.88;0.88;;;;;;;20.98;100.00;99136.31;4170213;28;20253;-46
2023/08/21 05:10:28;;;;;;;1.77;1.27;;;;;;;20.96;100.00;99128.25;4171632;28;20820;-46
2023/08/21 05:12:29;;;;;;;15.27;0.85;;;;;;;20.94;100.00;99138.00;4184357;28;20203;-46
2023/08/21 05:14:31;;;;;;;1.02;1.02;;;;;;;21.03;100.00;99123.13;4168231;28;20223;-45
2023/08/21 05:16:33;;;;;;;1.08;1.08;;;;;;;20.88;100.00;99128.09;4168633;28;20209;-45
2023/08/21 05:18:35;;;;;;;1.65;1.08;;;;;;;20.94;100.00;99132.44;4162603;28;20212;-45
2023/08/21 05:20:40;;;;;;;0.50;0.50;;;;;;;20.98;100.00;99130.72;4170211;28;20204;-45
2023/08/21 05:22:42;;;;;;;1.33;0.85;;;;;;;20.99;100.00;99132.38;4171326;28;20581;-45
2023/08/21 05:24:44;;;;;;;0.68;0.68;;;;;;;21.05;100.00;99133.97;4186522;28;20223;-46
2023/08/21 05:26:46;;;;;;;1.33;1.08;;;;;;;21.08;100.00;99138.91;4186558;28;21148;-45
2023/08/21 05:28:48;;;;;;;4.85;0.80;;;;;;;21.11;100.00;99128.00;4176584;28;20693;-45
2023/08/21 05:30:50;;;;;;;0.60;0.60;;;;;;;21.13;100.00;99138.84;4185914;28;20207;-47
2023/08/21 05:32:51;;;;;;;1.17;1.08;;;;;;;21.16;100.00;99146.56;4167402;28;20201;-45
2023/08/21 05:34:53;;;;;;;1.05;0.75;;;;;;;21.22;100.00;99137.00;4182946;28;20227;-45
2023/08/21 05:36:55;;;;;;;1.60;1.45;;;;;;;21.44;100.00;99138.00;4152556;28;20224;-45
2023/08/21 05:38:57;;;;;;;0.60;0.50;;;;;;;21.49;100.00;99145.44;4168092;28;20265;-46
2023/08/21 05:40:59;;;;;;;1.23;0.93;;;;;;;21.71;100.00;99160.38;4174638;28;21092;-45
2023/08/21 05:43:01;;;;;;;0.80;0.73;;;;;;;21.79;100.00;99150.50;4167755;28;20231;-47
2023/08/21 05:45:03;;;;;;;0.80;0.63;;;;;;;21.92;100.00;99158.88;4152366;28;20323;-47
2023/08/21 05:47:05;;;;;;;1.25;0.93;;;;;;;21.99;100.00;99162.09;4170994;28;20204;-47
2023/08/21 05:49:07;;;;;;;8.68;0.77;;;;;;;22.12;100.00;99166.03;4167457;28;20207;-46
2023/08/21 05:51:10;;;;;;;4.60;0.68;;;;;;;22.25;100.00;99166.03;4172190;28;20302;-48
2023/08/21 05:53:13;;;;;;;2.08;1.42;;;;;;;22.41;100.00;99166.53;4152695;28;20214;-46
2023/08/21 05:55:18;;;;;;;1.02;0.93;;;;;;;22.43;100.00;99161.53;4170602;28;20310;-46
2023/08/21 05:57:19;;;;;;;0.95;0.77;;;;;;;22.62;100.00;99165.84;4173374;28;20306;-45
2023/08/21 05:59:31;;;;;;;1.92;1.00;;;;;;;22.64;100.00;99162.75;4172177;28;20215;-47
2023/08/21 06:01:34;;;;;;;0.95;0.95;;;;;;;22.65;100.00;99164.38;4185626;28;20229;-46
2023/08/21 06:03:36;;;;;;;1.80;1.52;;;;;;;22.75;100.00;99164.13;4170570;28;20207;-46
2023/08/21 06:05:38;;;;;;;2.53;1.10;;;;;;;22.81;100.00;99162.88;4170590;28;20231;-47
2023/08/21 06:07:40;;;;;;;1.17;0.93;;;;;;;22.89;100.00;99170.53;4170643;28;20223;-46
2023/08/21 06:09:42;;;;;;;0.73;0.73;;;;;;;23.12;100.00;99169.44;4171509;28;20212;-47
2023/08/21 06:11:44;;;;;;;1.13;0.90;;;;;;;23.37;100.00;99171.66;4159673;28;20200;-46
2023/08/21 06:13:45;;;;;;;0.82;0.82;;;;;;;23.37;100.00;99171.66;4171959;28;20210;-45
2023/08/21 06:15:51;;;;;;;1.00;0.98;;;;;;;23.33;100.00;99176.22;4171287;28;20199;-47
2023/08/21 06:17:54;;;;;;;1.60;1.10;;;;;;;23.24;100.00;99169.75;4166988;28;20688;-47
2023/08/21 06:19:56;;;;;;;2.17;1.52;;;;;;;23.16;100.00;99181.66;4183798;28;20200;-47
2023/08/21 06:22:00;;;;;;;0.85;0.85;;;;;;;23.64;100.00;99171.50;4169994;28;20234;-46
2023/08/21 06:24:03;;;;;;;1.40;1.27;;;;;;;24.21;98.95;99176.97;4172148;28;20203;-46
2023/08/21 06:26:05;;;;;;;1.33;1.23;;;;;;;24.36;98.42;99182.94;4168130;28;20246;-47
2023/08/21 06:28:07;;;;;;;1.30;1.02;;;;;;;24.48;99.86;99183.16;4186065;28;20671;-46
2023/08/21 06:30:10;;;;;;;1.80;1.30;;;;;;;24.82;97.00;99188.88;4153756;28;20205;-49
2023/08/21 06:32:11;;;;;;;0.98;0.98;;;;;;;24.91;96.13;99189.72;4174003;28;20203;-47
2023/08/21 06:34:13;;;;;;;6.68;1.35;;;;;;;25.21;93.91;99180.38;4188420;28;20642;-47
2023/08/21 06:36:15;;;;;;;5.55;1.15;;;;;;;25.32;91.08;99178.91;4188696;28;20261;-46
2023/08/21 06:38:17;;;;;;;1.15;0.88;;;;;;;25.23;92.68;99172.47;4185414;28;20195;-48
2023/08/21 06:40:19;;;;;;;1.42;1.33;;;;;;;25.41;92.92;99185.34;4170336;28;20697;-47
2023/08/21 06:42:21;;;;;;;1.17;1.08;;;;;;;25.18;94.58;99180.16;4186172;28;20215;-46
2023/08/21 06:44:23;;;;;;;1.52;1.38;;;;;;;25.53;90.59;99181.88;4177319;28;20219;-47
2023/08/21 06:46:25;;;;;;;1.67;1.40;;;;;;;25.41;90.15;99184.50;4172200;28;20208;-48
2023/08/21 06:48:27;;;;;;;1.50;1.40;;;;;;;25.91;89.44;99180.84;4173449;28;20200;-47
2023/08/21 06:50:29;;;;;;;1.00;0.70;;;;;;;25.72;90.87;99177.53;4173336;28;20211;-48
2023/08/21 06:52:31;;;;;;;0.82;0.82;;;;;;;26.05;87.70;99177.84;4174492;28;20207;-47
2023/08/21 06:54:33;;;;;;;2.05;0.80;;;;;;;26.42;84.62;99177.84;4171741;28;20231;-49
2023/08/21 06:56:39;;;;;;;0.68;0.68;;;;;;;26.90;82.11;99185.84;4172467;28;20706;-48
2023/08/21 06:58:41;;;;;;;1.40;1.25;;;;;;;27.35;79.98;99187.72;4168030;28;20299;-46
2023/08/21 07:00:43;;;;;;;1.17;1.08;;;;;;;27.42;80.05;99185.19;4155114;28;20207;-54
2023/08/21 07:02:45;;;;;;;2.35;1.08;;;;;;;27.30;81.08;99187.91;4170828;28;20257;-48
2023/08/21 07:04:47;;;;;;;1.77;1.52;;;;;;;27.71;79.45;99184.25;4171186;28;20232;-49
2023/08/21 07:06:50;;;;;;;1.00;0.90;;;;;;;27.13;81.10;99188.00;4170136;28;20211;-46
2023/08/21 07:08:51;;;;;;;5.32;1.42;;;;;;;27.43;80.84;99189.63;4169334;28;20626;-47
2023/08/21 07:10:53;;;;;;;1.48;0.95;;;;;;;27.11;82.12;99187.53;4169382;28;20309;-50
2023/08/21 07:12:55;;;;;;;6.47;1.27;;;;;;;27.94;79.35;99194.81;4170184;28;20204;-47
2023/08/21 07:14:57;;;;;;;1.20;1.08;;;;;;;27.33;80.51;99181.59;4187678;28;20306;-46
2023/08/21 07:16:59;;;;;;;1.55;1.45;;;;;;;27.15;82.36;99179.28;4173848;28;20199;-45
2023/08/21 07:19:05;;;;;;;0.85;0.85;;;;;;;27.89;79.52;99177.31;4156249;28;20209;-47
2023/08/21 07:21:06;;;;;;;1.13;0.82;;;;;;;27.56;80.82;99176.44;4175178;28;20231;-47
2023/08/21 07:23:19;;;;;;;1.13;1.02;;;;;;;28.30;77.08;99177.16;4158278;28;20216;-46
2023/08/21 07:25:24;;;;;;;0.90;0.70;;;;;;;28.54;76.57;99180.88;4174315;28;20302;-46
2023/08/21 07:27:28;;;;;;;2.50;1.35;;;;;;;27.95;77.42;99175.91;4176882;28;20852;-49
2023/08/21 07:29:31;;;;;;;4.10;1.00;;;;;;;28.50;76.24;99177.09;4168036;28;20208;-46
2023/08/21 07:31:33;;;;;;;1.73;1.13;;;;;;;29.08;73.58;99187.91;4170535;28;20609;-47
2023/08/21 07:33:35;;;;;;;1.15;1.02;;;;;;;28.27;76.27;99184.34;4169720;28;20257;-47
2023/08/21 07:35:40;;;;;;;2.90;1.02;;;;;;;28.40;76.92;99188.81;4169598;28;20228;-47
2023/08/21 07:37:45;;;;;;;1.75;1.52;;;;;;;28.40;76.96;99188.00;4155593;28;20420;-47
2023/08/21 07:39:50;;;;;;;1.15;1.05;;;;;;;28.88;74.34;99188.00;4169519;28;20327;-47
2023/08/21 07:41:53;;;;;;;1.45;1.08;;;;;;;29.00;73.69;99188.88;4174216;28;20283;-47
2023/08/21 07:43:55;;;;;;;2.45;1.30;;;;;;;29.36;72.11;99188.78;4169986;28;20211;-47
2023/08/21 07:46:01;;;;;;;1.08;1.00;;;;;;;29.64;71.21;99188.84;4167688;28;20588;-47
2023/08/21 07:48:04;;;;;;;2.00;1.63;;;;;;;30.09;70.56;99193.00;4185321;28;20286;-47
2023/08/21 07:50:16;;;;;;;1.17;1.02;;;;;;;29.63;70.93;99193.66;4173548;28;20224;-46
2023/08/21 07:52:22;;;;;;;1.42;1.33;;;;;;;29.58;72.62;99185.44;4190057;28;20321;-46
2023/08/21 07:54:24;;;;;;;1.30;1.20;;;;;;;29.08;74.52;99190.75;4172284;28;20884;-46
2023/08/21 07:56:28;;;;;;;1.45;1.13;;;;;;;29.49;72.68;99193.22;4175694;28;20230;-50
2023/08/21 07:58:31;;;;;;;2.05;1.42;;;;;;;29.95;70.38;99195.41;4174062;28;20282;-49
2023/08/21 08:00:33;;;;;;;0.98;0.90;;;;;;;29.79;69.33;99196.53;4175319;28;20596;-49
2023/08/21 08:02:35;;;;;;;1.05;0.95;;;;;;;29.38;72.04;99200.53;4180022;28;20627;-51
2023/08/21 08:04:39;;;;;;;2.00;1.35;;;;;;;28.78;72.60;99197.75;4172912;28;20645;-49
2023/08/21 08:06:42;;;;;;;1.23;1.10;;;;;;;29.07;73.46;99191.91;4175036;28;20273;-47
2023/08/21 08:08:44;;;;;;;2.33;1.30;;;;;;;30.17;70.03;99186.38;4175476;28;20712;-49
2023/08/21 08:11:08;;;;;;;0.65;0.57;;;;;;;30.74;68.61;99195.19;4172950;28;20237;-48
2023/08/21 08:13:19;;;;;;;2.15;1.05;;;;;;;30.59;67.57;99179.00;4169907;28;20720;-46
2023/08/21 08:15:22;;;;;;;1.13;1.02;;;;;;;31.00;66.43;99189.75;4160507;28;20226;-50
2023/08/21 08:17:24;;;;;;;1.55;1.10;;;;;;;29.76;68.15;99175.50;4175361;28;20243;-49
2023/08/21 08:19:27;;;;;;;2.30;1.35;;;;;;;30.22;69.13;99173.97;4171082;28;20207;-46
2023/08/21 08:21:36;;;;;;;1.38;1.00;;;;;;;30.21;68.38;99169.50;4175165;28;20210;-46
2023/08/21 08:23:38;;;;;;;1.33;1.00;;;;;;;29.94;70.76;99176.84;4185684;28;20723;-46
2023/08/21 08:25:40;;;;;;;1.02;0.93;;;;;;;29.61;72.84;99172.63;4183688;28;20277;-46
2023/08/21 08:27:42;;;;;;;6.07;1.00;;;;;;;30.05;70.91;99175.09;4189839;28;20563;-46
2023/08/21 08:29:44;;;;;;;1.10;1.00;;;;;;;31.09;66.44;99172.56;4172696;28;20681;-47
2023/08/21 08:31:49;;;;;;;1.20;1.10;;;;;;;31.66;64.34;99173.50;4173312;28;20302;-48
2023/08/21 08:33:50;;;;;;;1.20;1.10;;;;;;;31.88;63.36;99178.44;4169980;28;20208;-51
2023/08/21 08:35:52;;;;;;;1.38;1.17;;;;;;;32.25;61.89;99188.91;4152798;28;20219;-47
2023/08/21 08:37:54;;;;;;;0.80;0.80;;;;;;;31.76;63.66;99175.75;4166455;28;20614;-49
2023/08/21 08:39:56;;;;;;;1.65;1.17;;;;;;;32.23;61.79;99181.97;4165816;28;20268;-47
2023/08/21 08:42:03;;;;;;;1.42;0.95;;;;;;;31.90;62.29;99181.69;4164939;28;20204;-49
2023/08/21 08:44:05;;;;;;;0.80;0.80;;;;;;;31.69;63.08;99186.91;4166188;28;20257;-47
2023/08/21 08:46:09;;;;;;;1.55;1.17;;;;;;;31.70;62.09;99174.38;4145421;28;20204;-47
2023/08/21 08:48:12;;;;;;;1.13;0.90;;;;;;;32.26;60.65;99184.06;4166069;28;20208;-46
2023/08/21 08:50:14;;;;;;;1.45;1.27;;;;;;;32.56;60.42;99173.66;4150549;28;20219;-48
2023/08/21 08:52:17;;;;;;;1.25;0.75;;;;;;;32.75;59.57;99179.31;4149876;28;20204;-48
2023/08/21 08:54:20;;;;;;;1.23;0.80;;;;;;;32.47;59.57;99184.47;4140524;28;20232;-49
2023/08/21 08:56:22;;;;;;;0.82;0.73;;;;;;;32.96;58.74;99174.78;4159575;28;20223;-52
2023/08/21 08:58:24;;;;;;;1.38;1.08;;;;;;;31.86;59.81;99175.16;4167402;28;21150;-50
2023/08/21 09:00:25;;;;;;;1.15;1.05;;;;;;;32.28;60.37;99170.34;4162767;28;20215;-47
2023/08/21 09:02:27;;;;;;;1.00;0.65;;;;;;;32.04;58.73;99182.81;4160863;28;20253;-46
2023/08/21 09:04:29;;;;;;;8.40;1.25;;;;;;;31.51;59.68;99167.91;4170019;28;20616;-48
2023/08/21 09:06:32;;;;;;;1.02;0.90;;;;;;;32.26;59.62;99172.75;4173170;28;20211;-46
2023/08/21 09:08:34;;;;;;;1.48;1.30;;;;;;;32.67;59.07;99171.84;4177092;28;20203;-47
2023/08/21 09:10:39;;;;;;;0.80;0.80;;;;;;;32.32;60.23;99166.38;4168517;28;20208;-48
2023/08/21 09:12:41;;;;;;;0.75;0.70;;;;;;;32.31;59.45;99169.56;4168132;28;20200;-48
2023/08/21 09:14:46;;;;;;;1.05;0.90;;;;;;;32.27;60.11;99168.69;4169696;28;20691;-48
2023/08/21 09:17:03;;;;;;;2.33;0.93;;;;;;;32.83;58.55;99172.53;4169077;28;20215;-47
2023/08/21 09:19:06;;;;;;;17.98;0.88;;;;;;;32.34;57.08;99172.47;4168531;28;20210;-48
2023/08/21 09:21:07;;;;;;;1.90;1.38;;;;;;;31.90;58.77;99164.72;4165253;28;20819;-48
2023/08/21 09:23:16;;;;;;;1.15;0.63;;;;;;;32.39;60.64;99162.81;4165790;28;20235;-48
2023/08/21 09:25:18;;;;;;;9.77;0.50;;;;;;;33.02;58.21;99161.91;4167364;28;20227;-50
2023/08/21 09:27:20;;;;;;;2.20;1.23;;;;;;;33.37;56.49;99167.31;4157742;28;20628;-50
2023/08/21 09:29:22;;;;;;;0.70;0.70;;;;;;;33.51;55.89;99167.50;4167187;28;20204;-47
2023/08/21 09:31:29;;;;;;;0.80;0.70;;;;;;;33.75;55.96;99161.31;4150570;28;20694;-50
2023/08/21 09:33:31;;;;;;;1.05;0.93;;;;;;;33.84;55.52;99159.00;4168878;28;20282;-50
2023/08/21 09:35:33;;;;;;;0.82;0.70;;;;;;;33.52;55.19;99160.59;4169199;28;20247;-47